sensor_id;sensor_type;location;lat;lon;timestamp;temperature;humidity
19039;DHT22;9652;49.014;12.052;2022-11-15T00:00:44;7.20;71.70
19039;DHT22;9652;49.014;12.052;2022-11-15T00:03:30;7.20;71.60
19039;DHT22;9652;49.014;12.052;2022-11-15T00:06:16;7.20;71.60
19039;DHT22;9652;49.014;12.052;2022-11-15T00:09:02;7.10;71.60
19039;DHT22;9652;49.014;12.052;2022-11-15T00:11:48;7.10;71.60
19039;DHT22;9652;49.014;12.052;2022-11-15T00:14:35;7.10;71.60
19039;DHT22;9652;49.014;12.052;2022-11-15T00:17:21;7.10;71.60
19039;DHT22;9652;49.014;12.052;2022-11-15T00:20:08;7.10;71.50
19039;DHT22;9652;49.014;12.052;2022-11-15T00:22:54;7.10;71.60
19039;DHT22;9652;49.014;12.052;2022-11-15T00:25:40;7.00;71.60
19039;DHT22;9652;49.014;12.052;2022-11-15T00:28:26;7.00;71.70
19039;DHT22;9652;49.014;12.052;2022-11-15T00:31:14;7.00;71.70
19039;DHT22;9652;49.014;12.052;2022-11-15T00:34:00;7.00;71.80
19039;DHT22;9652;49.014;12.052;2022-11-15T00:36:46;7.00;71.80
19039;DHT22;9652;49.014;12.052;2022-11-15T00:39:31;7.00;71.80
19039;DHT22;9652;49.014;12.052;2022-11-15T00:42:17;6.90;71.80
19039;DHT22;9652;49.014;12.052;2022-11-15T00:45:03;6.90;71.70
19039;DHT22;9652;49.014;12.052;2022-11-15T00:47:51;6.90;71.80
19039;DHT22;9652;49.014;12.052;2022-11-15T00:50:37;7.00;71.90
19039;DHT22;9652;49.014;12.052;2022-11-15T00:53:23;6.90;71.80
19039;DHT22;9652;49.014;12.052;2022-11-15T00:56:09;6.90;71.80
19039;DHT22;9652;49.014;12.052;2022-11-15T00:58:54;6.90;71.70
19039;DHT22;9652;49.014;12.052;2022-11-15T01:01:40;6.90;71.70
19039;DHT22;9652;49.014;12.052;2022-11-15T01:04:27;6.80;71.60
19039;DHT22;9652;49.014;12.052;2022-11-15T01:07:13;6.80;71.70
19039;DHT22;9652;49.014;12.052;2022-11-15T01:09:59;6.80;71.80
19039;DHT22;9652;49.014;12.052;2022-11-15T01:12:45;6.80;71.80
19039;DHT22;9652;49.014;12.052;2022-11-15T01:15:31;6.80;71.80
19039;DHT22;9652;49.014;12.052;2022-11-15T01:18:16;6.80;71.80
19039;DHT22;9652;49.014;12.052;2022-11-15T01:21:07;6.80;71.80
19039;DHT22;9652;49.014;12.052;2022-11-15T01:23:54;6.80;71.80
19039;DHT22;9652;49.014;12.052;2022-11-15T01:26:41;6.70;71.70
19039;DHT22;9652;49.014;12.052;2022-11-15T01:29:26;6.70;71.80
19039;DHT22;9652;49.014;12.052;2022-11-15T01:32:12;6.70;71.80
19039;DHT22;9652;49.014;12.052;2022-11-15T01:34:58;6.70;71.80
19039;DHT22;9652;49.014;12.052;2022-11-15T01:37:45;6.70;71.80
19039;DHT22;9652;49.014;12.052;2022-11-15T01:40:31;6.70;72.70
19039;DHT22;9652;49.014;12.052;2022-11-15T01:43:22;6.70;71.90
19039;DHT22;9652;49.014;12.052;2022-11-15T01:46:27;6.70;71.90
19039;DHT22;9652;49.014;12.052;2022-11-15T01:49:20;6.70;72.10
19039;DHT22;9652;49.014;12.052;2022-11-15T01:52:10;6.60;71.80
19039;DHT22;9652;49.014;12.052;2022-11-15T01:55:05;6.60;71.80
19039;DHT22;9652;49.014;12.052;2022-11-15T01:57:57;6.60;72.00
19039;DHT22;9652;49.014;12.052;2022-11-15T02:00:46;6.60;72.00
19039;DHT22;9652;49.014;12.052;2022-11-15T02:03:38;6.60;71.90
19039;DHT22;9652;49.014;12.052;2022-11-15T02:06:28;6.60;72.00
19039;DHT22;9652;49.014;12.052;2022-11-15T02:09:15;6.60;71.90
19039;DHT22;9652;49.014;12.052;2022-11-15T02:12:04;6.60;71.80
19039;DHT22;9652;49.014;12.052;2022-11-15T02:14:53;6.50;71.80
19039;DHT22;9652;49.014;12.052;2022-11-15T02:18:02;6.50;71.80
19039;DHT22;9652;49.014;12.052;2022-11-15T02:21:05;6.50;72.00
19039;DHT22;9652;49.014;12.052;2022-11-15T02:24:33;6.50;71.80
19039;DHT22;9652;49.014;12.052;2022-11-15T02:28:22;6.50;72.00
19039;DHT22;9652;49.014;12.052;2022-11-15T02:31:36;6.50;72.00
19039;DHT22;9652;49.014;12.052;2022-11-15T02:34:32;6.40;71.60
19039;DHT22;9652;49.014;12.052;2022-11-15T02:37:30;6.40;71.70
19039;DHT22;9652;49.014;12.052;2022-11-15T02:40:28;6.40;71.80
19039;DHT22;9652;49.014;12.052;2022-11-15T02:43:25;6.40;71.80
19039;DHT22;9652;49.014;12.052;2022-11-15T02:46:36;6.40;71.80
19039;DHT22;9652;49.014;12.052;2022-11-15T02:49:55;6.40;71.80
19039;DHT22;9652;49.014;12.052;2022-11-15T02:52:45;6.30;71.70
19039;DHT22;9652;49.014;12.052;2022-11-15T02:55:34;6.30;71.70
19039;DHT22;9652;49.014;12.052;2022-11-15T02:58:45;6.30;71.80
19039;DHT22;9652;49.014;12.052;2022-11-15T03:01:49;6.30;72.10
19039;DHT22;9652;49.014;12.052;2022-11-15T03:04:44;6.30;71.90
19039;DHT22;9652;49.014;12.052;2022-11-15T03:07:43;6.30;71.70
19039;DHT22;9652;49.014;12.052;2022-11-15T03:10:42;6.30;71.70
19039;DHT22;9652;49.014;12.052;2022-11-15T03:13:39;6.30;71.70
19039;DHT22;9652;49.014;12.052;2022-11-15T03:16:37;6.30;71.60
19039;DHT22;9652;49.014;12.052;2022-11-15T03:19:33;6.30;71.60
19039;DHT22;9652;49.014;12.052;2022-11-15T03:22:26;6.20;71.60
19039;DHT22;9652;49.014;12.052;2022-11-15T03:25:17;6.20;71.60
19039;DHT22;9652;49.014;12.052;2022-11-15T03:28:06;6.20;71.70
19039;DHT22;9652;49.014;12.052;2022-11-15T03:30:56;6.20;71.60
19039;DHT22;9652;49.014;12.052;2022-11-15T03:33:47;6.20;71.60
19039;DHT22;9652;49.014;12.052;2022-11-15T03:36:34;6.20;71.70
19039;DHT22;9652;49.014;12.052;2022-11-15T03:39:22;6.20;71.70
19039;DHT22;9652;49.014;12.052;2022-11-15T03:42:20;6.20;71.80
19039;DHT22;9652;49.014;12.052;2022-11-15T03:45:13;6.20;71.90
19039;DHT22;9652;49.014;12.052;2022-11-15T03:48:05;6.10;71.70
19039;DHT22;9652;49.014;12.052;2022-11-15T03:50:57;6.10;71.70
19039;DHT22;9652;49.014;12.052;2022-11-15T03:53:43;6.10;71.70
19039;DHT22;9652;49.014;12.052;2022-11-15T03:56:29;6.10;71.70
19039;DHT22;9652;49.014;12.052;2022-11-15T03:59:15;6.10;71.70
19039;DHT22;9652;49.014;12.052;2022-11-15T04:02:00;6.10;71.70
19039;DHT22;9652;49.014;12.052;2022-11-15T04:04:46;6.10;71.70
19039;DHT22;9652;49.014;12.052;2022-11-15T04:07:33;6.10;71.70
19039;DHT22;9652;49.014;12.052;2022-11-15T04:10:19;6.10;71.70
19039;DHT22;9652;49.014;12.052;2022-11-15T04:13:05;6.10;71.70
19039;DHT22;9652;49.014;12.052;2022-11-15T04:15:51;6.00;71.60
19039;DHT22;9652;49.014;12.052;2022-11-15T04:18:37;6.00;71.60
19039;DHT22;9652;49.014;12.052;2022-11-15T04:21:22;6.00;71.70
19039;DHT22;9652;49.014;12.052;2022-11-15T04:24:27;6.00;71.70
19039;DHT22;9652;49.014;12.052;2022-11-15T04:27:13;6.00;71.70
19039;DHT22;9652;49.014;12.052;2022-11-15T04:29:59;6.00;71.80
19039;DHT22;9652;49.014;12.052;2022-11-15T04:32:44;6.00;71.70
19039;DHT22;9652;49.014;12.052;2022-11-15T04:35:30;6.00;71.70
19039;DHT22;9652;49.014;12.052;2022-11-15T04:38:16;6.00;71.70
19039;DHT22;9652;49.014;12.052;2022-11-15T04:41:03;5.90;71.70
19039;DHT22;9652;49.014;12.052;2022-11-15T04:43:49;5.90;71.90
19039;DHT22;9652;49.014;12.052;2022-11-15T04:46:35;5.90;71.90
19039;DHT22;9652;49.014;12.052;2022-11-15T04:49:20;5.90;72.00
19039;DHT22;9652;49.014;12.052;2022-11-15T04:52:06;5.90;72.10
19039;DHT22;9652;49.014;12.052;2022-11-15T04:54:52;5.90;72.20
19039;DHT22;9652;49.014;12.052;2022-11-15T04:57:39;5.90;72.20
19039;DHT22;9652;49.014;12.052;2022-11-15T05:00:25;6.00;72.20
19039;DHT22;9652;49.014;12.052;2022-11-15T05:03:12;5.90;72.10
19039;DHT22;9652;49.014;12.052;2022-11-15T05:06:15;5.90;72.20
19039;DHT22;9652;49.014;12.052;2022-11-15T05:09:01;5.90;72.30
19039;DHT22;9652;49.014;12.052;2022-11-15T05:11:47;5.90;72.30
19039;DHT22;9652;49.014;12.052;2022-11-15T05:14:34;5.90;72.30
19039;DHT22;9652;49.014;12.052;2022-11-15T05:17:20;5.90;72.20
19039;DHT22;9652;49.014;12.052;2022-11-15T05:20:07;5.90;72.20
19039;DHT22;9652;49.014;12.052;2022-11-15T05:22:53;5.90;72.20
19039;DHT22;9652;49.014;12.052;2022-11-15T05:25:39;5.90;72.20
19039;DHT22;9652;49.014;12.052;2022-11-15T05:28:25;5.90;72.10
19039;DHT22;9652;49.014;12.052;2022-11-15T05:31:14;5.90;72.10
19039;DHT22;9652;49.014;12.052;2022-11-15T05:34:02;5.90;72.10
19039;DHT22;9652;49.014;12.052;2022-11-15T05:36:50;6.00;72.20
19039;DHT22;9652;49.014;12.052;2022-11-15T05:39:36;6.00;72.20
19039;DHT22;9652;49.014;12.052;2022-11-15T05:42:22;5.90;72.20
19039;DHT22;9652;49.014;12.052;2022-11-15T05:45:08;5.80;72.20
19039;DHT22;9652;49.014;12.052;2022-11-15T05:47:57;5.80;72.40
19039;DHT22;9652;49.014;12.052;2022-11-15T05:50:46;5.90;72.60
19039;DHT22;9652;49.014;12.052;2022-11-15T05:53:33;5.80;72.50
19039;DHT22;9652;49.014;12.052;2022-11-15T05:56:21;5.80;72.40
19039;DHT22;9652;49.014;12.052;2022-11-15T05:59:07;5.80;72.50
19039;DHT22;9652;49.014;12.052;2022-11-15T06:01:54;5.80;72.40
19039;DHT22;9652;49.014;12.052;2022-11-15T06:04:41;5.80;72.40
19039;DHT22;9652;49.014;12.052;2022-11-15T06:07:28;5.80;72.40
19039;DHT22;9652;49.014;12.052;2022-11-15T06:10:14;5.80;72.20
19039;DHT22;9652;49.014;12.052;2022-11-15T06:13:01;5.70;72.10
19039;DHT22;9652;49.014;12.052;2022-11-15T06:15:48;5.70;72.20
19039;DHT22;9652;49.014;12.052;2022-11-15T06:18:35;5.80;72.20
19039;DHT22;9652;49.014;12.052;2022-11-15T06:21:23;5.70;72.40
19039;DHT22;9652;49.014;12.052;2022-11-15T06:24:08;5.70;72.40
19039;DHT22;9652;49.014;12.052;2022-11-15T06:26:54;5.70;72.40
19039;DHT22;9652;49.014;12.052;2022-11-15T06:29:41;5.70;72.40
19039;DHT22;9652;49.014;12.052;2022-11-15T06:32:28;5.70;72.50
19039;DHT22;9652;49.014;12.052;2022-11-15T06:35:14;5.70;72.60
19039;DHT22;9652;49.014;12.052;2022-11-15T06:38:03;5.70;72.60
19039;DHT22;9652;49.014;12.052;2022-11-15T06:40:50;5.70;72.60
19039;DHT22;9652;49.014;12.052;2022-11-15T06:43:36;5.80;72.70
19039;DHT22;9652;49.014;12.052;2022-11-15T06:46:22;5.70;72.60
19039;DHT22;9652;49.014;12.052;2022-11-15T06:49:08;5.70;72.70
19039;DHT22;9652;49.014;12.052;2022-11-15T06:51:54;5.70;72.70
19039;DHT22;9652;49.014;12.052;2022-11-15T06:54:41;5.70;72.70
19039;DHT22;9652;49.014;12.052;2022-11-15T06:57:27;5.70;72.70
19039;DHT22;9652;49.014;12.052;2022-11-15T07:00:14;5.70;72.80
19039;DHT22;9652;49.014;12.052;2022-11-15T07:03:01;5.80;73.00
19039;DHT22;9652;49.014;12.052;2022-11-15T07:05:51;5.80;73.10
19039;DHT22;9652;49.014;12.052;2022-11-15T07:08:38;5.80;73.40
19039;DHT22;9652;49.014;12.052;2022-11-15T07:11:27;5.80;73.40
19039;DHT22;9652;49.014;12.052;2022-11-15T07:14:13;5.90;73.60
19039;DHT22;9652;49.014;12.052;2022-11-15T07:16:58;5.90;73.50
19039;DHT22;9652;49.014;12.052;2022-11-15T07:19:44;5.90;73.70
19039;DHT22;9652;49.014;12.052;2022-11-15T07:22:33;5.90;73.60
19039;DHT22;9652;49.014;12.052;2022-11-15T07:25:19;6.00;73.80
19039;DHT22;9652;49.014;12.052;2022-11-15T07:28:06;6.10;73.90
19039;DHT22;9652;49.014;12.052;2022-11-15T07:30:52;6.10;74.00
19039;DHT22;9652;49.014;12.052;2022-11-15T07:33:38;6.20;74.10
19039;DHT22;9652;49.014;12.052;2022-11-15T07:36:26;6.20;74.00
19039;DHT22;9652;49.014;12.052;2022-11-15T07:39:12;6.30;74.10
19039;DHT22;9652;49.014;12.052;2022-11-15T07:41:59;6.30;74.10
19039;DHT22;9652;49.014;12.052;2022-11-15T07:45:04;6.40;74.40
19039;DHT22;9652;49.014;12.052;2022-11-15T07:47:51;6.50;74.50
19039;DHT22;9652;49.014;12.052;2022-11-15T07:50:40;6.50;74.70
19039;DHT22;9652;49.014;12.052;2022-11-15T07:53:26;6.60;74.90
19039;DHT22;9652;49.014;12.052;2022-11-15T07:56:12;6.70;75.00
19039;DHT22;9652;49.014;12.052;2022-11-15T07:58:58;6.70;75.00
19039;DHT22;9652;49.014;12.052;2022-11-15T08:01:46;6.80;75.10
19039;DHT22;9652;49.014;12.052;2022-11-15T08:04:32;6.90;75.20
19039;DHT22;9652;49.014;12.052;2022-11-15T08:07:18;7.00;75.10
19039;DHT22;9652;49.014;12.052;2022-11-15T08:10:04;7.10;75.10
19039;DHT22;9652;49.014;12.052;2022-11-15T08:12:57;7.20;75.20
19039;DHT22;9652;49.014;12.052;2022-11-15T08:15:44;7.30;75.50
19039;DHT22;9652;49.014;12.052;2022-11-15T08:18:31;7.30;75.40
19039;DHT22;9652;49.014;12.052;2022-11-15T08:21:19;7.40;75.40
19039;DHT22;9652;49.014;12.052;2022-11-15T08:24:08;7.50;75.50
19039;DHT22;9652;49.014;12.052;2022-11-15T08:26:55;7.60;75.50
19039;DHT22;9652;49.014;12.052;2022-11-15T08:29:41;7.70;75.50
19039;DHT22;9652;49.014;12.052;2022-11-15T08:32:28;7.80;75.60
19039;DHT22;9652;49.014;12.052;2022-11-15T08:35:15;7.80;75.60
19039;DHT22;9652;49.014;12.052;2022-11-15T08:38:01;8.00;76.60
19039;DHT22;9652;49.014;12.052;2022-11-15T08:40:47;8.10;75.90
19039;DHT22;9652;49.014;12.052;2022-11-15T08:43:33;8.10;75.90
19039;DHT22;9652;49.014;12.052;2022-11-15T08:46:19;8.20;75.90
19039;DHT22;9652;49.014;12.052;2022-11-15T08:49:04;8.30;75.90
19039;DHT22;9652;49.014;12.052;2022-11-15T08:51:51;8.40;75.90
19039;DHT22;9652;49.014;12.052;2022-11-15T08:54:37;8.50;75.90
19039;DHT22;9652;49.014;12.052;2022-11-15T08:57:23;8.60;75.80
19039;DHT22;9652;49.014;12.052;2022-11-15T09:00:10;8.70;75.70
19039;DHT22;9652;49.014;12.052;2022-11-15T09:02:57;8.80;75.80
19039;DHT22;9652;49.014;12.052;2022-11-15T09:05:43;8.90;75.90
19039;DHT22;9652;49.014;12.052;2022-11-15T09:08:30;9.00;75.90
19039;DHT22;9652;49.014;12.052;2022-11-15T09:11:16;9.10;75.90
19039;DHT22;9652;49.014;12.052;2022-11-15T09:14:04;9.20;75.80
19039;DHT22;9652;49.014;12.052;2022-11-15T09:16:50;9.30;75.80
19039;DHT22;9652;49.014;12.052;2022-11-15T09:19:36;9.40;75.80
19039;DHT22;9652;49.014;12.052;2022-11-15T09:22:22;9.50;75.80
19039;DHT22;9652;49.014;12.052;2022-11-15T09:25:09;9.60;75.80
19039;DHT22;9652;49.014;12.052;2022-11-15T09:27:55;9.60;75.90
19039;DHT22;9652;49.014;12.052;2022-11-15T09:30:41;9.70;75.90
19039;DHT22;9652;49.014;12.052;2022-11-15T09:33:28;9.80;75.90
19039;DHT22;9652;49.014;12.052;2022-11-15T09:36:14;10.00;76.00
19039;DHT22;9652;49.014;12.052;2022-11-15T09:39:01;10.00;75.80
19039;DHT22;9652;49.014;12.052;2022-11-15T09:42:06;10.20;75.70
19039;DHT22;9652;49.014;12.052;2022-11-15T09:45:14;10.30;75.50
19039;DHT22;9652;49.014;12.052;2022-11-15T09:48:24;10.40;75.40
19039;DHT22;9652;49.014;12.052;2022-11-15T09:51:38;10.50;75.30
19039;DHT22;9652;49.014;12.052;2022-11-15T09:54:20;10.60;75.30
19039;DHT22;9652;49.014;12.052;2022-11-15T09:56:53;10.70;75.10
19039;DHT22;9652;49.014;12.052;2022-11-15T09:59:38;10.80;75.10
19039;DHT22;9652;49.014;12.052;2022-11-15T10:02:23;10.90;74.90
19039;DHT22;9652;49.014;12.052;2022-11-15T10:05:06;11.00;74.80
19039;DHT22;9652;49.014;12.052;2022-11-15T10:07:44;11.10;74.80
19039;DHT22;9652;49.014;12.052;2022-11-15T10:10:23;11.20;74.70
19039;DHT22;9652;49.014;12.052;2022-11-15T10:12:56;11.20;74.50
19039;DHT22;9652;49.014;12.052;2022-11-15T10:15:26;11.30;74.50
19039;DHT22;9652;49.014;12.052;2022-11-15T10:18:06;11.40;74.50
19039;DHT22;9652;49.014;12.052;2022-11-15T10:20:44;11.50;74.20
19039;DHT22;9652;49.014;12.052;2022-11-15T10:23:17;11.60;74.10
19039;DHT22;9652;49.014;12.052;2022-11-15T10:25:46;11.70;74.20
19039;DHT22;9652;49.014;12.052;2022-11-15T10:28:17;11.70;74.20
19039;DHT22;9652;49.014;12.052;2022-11-15T10:30:51;11.80;74.00
19039;DHT22;9652;49.014;12.052;2022-11-15T10:33:32;11.90;74.00
19039;DHT22;9652;49.014;12.052;2022-11-15T10:36:16;12.00;74.00
19039;DHT22;9652;49.014;12.052;2022-11-15T10:38:55;12.10;73.50
19039;DHT22;9652;49.014;12.052;2022-11-15T10:41:30;12.20;73.80
19039;DHT22;9652;49.014;12.052;2022-11-15T10:44:08;12.20;73.60
19039;DHT22;9652;49.014;12.052;2022-11-15T10:46:41;12.30;73.80
19039;DHT22;9652;49.014;12.052;2022-11-15T10:49:13;12.40;73.70
19039;DHT22;9652;49.014;12.052;2022-11-15T10:51:45;12.60;73.70
19039;DHT22;9652;49.014;12.052;2022-11-15T10:54:19;12.60;73.60
19039;DHT22;9652;49.014;12.052;2022-11-15T10:56:53;12.70;73.40
19039;DHT22;9652;49.014;12.052;2022-11-15T10:59:26;12.70;73.30
19039;DHT22;9652;49.014;12.052;2022-11-15T11:01:57;12.80;73.10
19039;DHT22;9652;49.014;12.052;2022-11-15T11:04:24;12.90;73.20
19039;DHT22;9652;49.014;12.052;2022-11-15T11:06:53;13.00;73.20
19039;DHT22;9652;49.014;12.052;2022-11-15T11:09:28;13.00;73.00
19039;DHT22;9652;49.014;12.052;2022-11-15T11:11:58;13.10;73.00
19039;DHT22;9652;49.014;12.052;2022-11-15T11:14:28;13.20;73.00
19039;DHT22;9652;49.014;12.052;2022-11-15T11:17:04;13.20;72.80
19039;DHT22;9652;49.014;12.052;2022-11-15T11:19:46;13.30;72.30
19039;DHT22;9652;49.014;12.052;2022-11-15T11:22:28;13.40;72.30
19039;DHT22;9652;49.014;12.052;2022-11-15T11:25:14;13.40;72.30
19039;DHT22;9652;49.014;12.052;2022-11-15T11:27:57;13.50;71.80
19039;DHT22;9652;49.014;12.052;2022-11-15T11:30:44;13.60;71.80
19039;DHT22;9652;49.014;12.052;2022-11-15T11:33:20;13.60;71.70
19039;DHT22;9652;49.014;12.052;2022-11-15T11:36:02;13.70;72.00
19039;DHT22;9652;49.014;12.052;2022-11-15T11:38:56;13.70;71.80
19039;DHT22;9652;49.014;12.052;2022-11-15T11:41:43;13.80;71.60
19039;DHT22;9652;49.014;12.052;2022-11-15T11:44:32;13.90;71.50
19039;DHT22;9652;49.014;12.052;2022-11-15T11:47:09;13.90;71.40
19039;DHT22;9652;49.014;12.052;2022-11-15T11:49:43;14.00;71.40
19039;DHT22;9652;49.014;12.052;2022-11-15T11:52:17;14.10;71.20
19039;DHT22;9652;49.014;12.052;2022-11-15T11:54:58;14.10;71.20
19039;DHT22;9652;49.014;12.052;2022-11-15T11:57:38;14.10;71.10
19039;DHT22;9652;49.014;12.052;2022-11-15T12:00:17;14.10;70.70
19039;DHT22;9652;49.014;12.052;2022-11-15T12:02:50;14.20;70.60
19039;DHT22;9652;49.014;12.052;2022-11-15T12:05:34;14.20;70.70
19039;DHT22;9652;49.014;12.052;2022-11-15T12:11:12;14.30;70.30
19039;DHT22;9652;49.014;12.052;2022-11-15T12:13:44;14.30;70.50
19039;DHT22;9652;49.014;12.052;2022-11-15T12:16:18;14.30;70.50
19039;DHT22;9652;49.014;12.052;2022-11-15T12:18:51;14.40;70.10
19039;DHT22;9652;49.014;12.052;2022-11-15T12:21:24;14.40;70.20
19039;DHT22;9652;49.014;12.052;2022-11-15T12:24:01;14.40;70.00
19039;DHT22;9652;49.014;12.052;2022-11-15T12:26:35;14.40;70.00
19039;DHT22;9652;49.014;12.052;2022-11-15T12:29:12;14.40;69.90
19039;DHT22;9652;49.014;12.052;2022-11-15T12:31:45;14.50;69.70
19039;DHT22;9652;49.014;12.052;2022-11-15T12:34:40;14.50;69.80
19039;DHT22;9652;49.014;12.052;2022-11-15T12:40:20;14.50;69.00
19039;DHT22;9652;49.014;12.052;2022-11-15T12:43:05;14.60;69.60
19039;DHT22;9652;49.014;12.052;2022-11-15T12:46:12;14.50;69.30
19039;DHT22;9652;49.014;12.052;2022-11-15T12:48:52;14.50;70.10
19039;DHT22;9652;49.014;12.052;2022-11-15T12:54:54;14.50;69.40
19039;DHT22;9652;49.014;12.052;2022-11-15T12:57:41;14.50;68.80
19039;DHT22;9652;49.014;12.052;2022-11-15T13:00:43;14.50;69.10
19039;DHT22;9652;49.014;12.052;2022-11-15T13:03:25;14.50;68.60
19039;DHT22;9652;49.014;12.052;2022-11-15T13:06:06;14.50;68.90
19039;DHT22;9652;49.014;12.052;2022-11-15T13:08:52;14.50;68.90
19039;DHT22;9652;49.014;12.052;2022-11-15T13:11:50;14.50;68.80
19039;DHT22;9652;49.014;12.052;2022-11-15T13:14:44;14.50;68.70
19039;DHT22;9652;49.014;12.052;2022-11-15T13:17:32;14.50;68.60
19039;DHT22;9652;49.014;12.052;2022-11-15T13:20:22;14.50;68.60
19039;DHT22;9652;49.014;12.052;2022-11-15T13:23:00;14.50;68.80
19039;DHT22;9652;49.014;12.052;2022-11-15T13:28:49;14.50;68.30
19039;DHT22;9652;49.014;12.052;2022-11-15T13:31:35;14.50;68.80
19039;DHT22;9652;49.014;12.052;2022-11-15T13:34:16;14.40;68.30
19039;DHT22;9652;49.014;12.052;2022-11-15T13:36:52;14.40;68.40
19039;DHT22;9652;49.014;12.052;2022-11-15T13:39:30;14.50;69.00
19039;DHT22;9652;49.014;12.052;2022-11-15T13:41:59;14.40;68.50
19039;DHT22;9652;49.014;12.052;2022-11-15T13:44:29;14.40;68.70
19039;DHT22;9652;49.014;12.052;2022-11-15T13:47:02;14.40;68.50
19039;DHT22;9652;49.014;12.052;2022-11-15T13:49:32;14.40;68.50
19039;DHT22;9652;49.014;12.052;2022-11-15T13:52:02;14.40;68.70
19039;DHT22;9652;49.014;12.052;2022-11-15T13:54:36;14.40;68.50
19039;DHT22;9652;49.014;12.052;2022-11-15T13:57:11;14.50;68.60
19039;DHT22;9652;49.014;12.052;2022-11-15T13:59:47;14.40;68.30
19039;DHT22;9652;49.014;12.052;2022-11-15T14:02:20;14.50;68.40
19039;DHT22;9652;49.014;12.052;2022-11-15T14:04:53;14.40;68.40
19039;DHT22;9652;49.014;12.052;2022-11-15T14:07:25;14.40;68.30
19039;DHT22;9652;49.014;12.052;2022-11-15T14:09:53;14.50;68.40
19039;DHT22;9652;49.014;12.052;2022-11-15T14:12:27;14.40;68.30
19039;DHT22;9652;49.014;12.052;2022-11-15T14:15:18;14.40;68.10
19039;DHT22;9652;49.014;12.052;2022-11-15T14:17:52;14.40;68.20
19039;DHT22;9652;49.014;12.052;2022-11-15T14:20:30;14.40;68.50
19039;DHT22;9652;49.014;12.052;2022-11-15T14:23:00;14.40;68.30
19039;DHT22;9652;49.014;12.052;2022-11-15T14:25:29;14.40;68.30
19039;DHT22;9652;49.014;12.052;2022-11-15T14:28:16;14.40;68.20
19039;DHT22;9652;49.014;12.052;2022-11-15T14:30:58;14.40;67.70
19039;DHT22;9652;49.014;12.052;2022-11-15T14:33:28;14.40;68.00
19039;DHT22;9652;49.014;12.052;2022-11-15T14:36:03;14.40;67.90
19039;DHT22;9652;49.014;12.052;2022-11-15T14:38:31;14.40;67.80
19039;DHT22;9652;49.014;12.052;2022-11-15T14:41:00;14.40;67.90
19039;DHT22;9652;49.014;12.052;2022-11-15T14:43:27;14.40;67.80
19039;DHT22;9652;49.014;12.052;2022-11-15T14:45:54;14.40;68.00
19039;DHT22;9652;49.014;12.052;2022-11-15T14:48:23;14.30;68.00
19039;DHT22;9652;49.014;12.052;2022-11-15T14:50:50;14.30;67.80
19039;DHT22;9652;49.014;12.052;2022-11-15T14:53:18;14.30;67.80
19039;DHT22;9652;49.014;12.052;2022-11-15T14:55:45;14.20;67.70
19039;DHT22;9652;49.014;12.052;2022-11-15T14:58:12;14.20;67.50
19039;DHT22;9652;49.014;12.052;2022-11-15T15:00:41;14.20;67.40
19039;DHT22;9652;49.014;12.052;2022-11-15T15:03:09;14.20;67.30
19039;DHT22;9652;49.014;12.052;2022-11-15T15:05:39;14.10;67.30
19039;DHT22;9652;49.014;12.052;2022-11-15T15:08:08;14.10;67.20
19039;DHT22;9652;49.014;12.052;2022-11-15T15:10:38;14.00;67.10
19039;DHT22;9652;49.014;12.052;2022-11-15T15:13:14;13.90;67.00
19039;DHT22;9652;49.014;12.052;2022-11-15T15:15:43;13.90;66.90
19039;DHT22;9652;49.014;12.052;2022-11-15T15:18:11;13.80;66.90
19039;DHT22;9652;49.014;12.052;2022-11-15T15:20:41;13.80;66.80
19039;DHT22;9652;49.014;12.052;2022-11-15T15:23:15;13.80;67.00
19039;DHT22;9652;49.014;12.052;2022-11-15T15:25:44;13.60;67.00
19039;DHT22;9652;49.014;12.052;2022-11-15T15:28:12;13.50;67.10
19039;DHT22;9652;49.014;12.052;2022-11-15T15:30:39;13.50;67.20
19039;DHT22;9652;49.014;12.052;2022-11-15T15:33:07;13.40;67.20
19039;DHT22;9652;49.014;12.052;2022-11-15T15:35:34;13.30;67.20
19039;DHT22;9652;49.014;12.052;2022-11-15T15:38:03;13.20;67.20
19039;DHT22;9652;49.014;12.052;2022-11-15T15:40:32;13.20;67.30
19039;DHT22;9652;49.014;12.052;2022-11-15T15:43:00;13.10;67.40
19039;DHT22;9652;49.014;12.052;2022-11-15T15:45:27;13.00;67.40
19039;DHT22;9652;49.014;12.052;2022-11-15T15:47:55;12.90;67.60
19039;DHT22;9652;49.014;12.052;2022-11-15T15:50:25;12.80;67.50
19039;DHT22;9652;49.014;12.052;2022-11-15T15:52:57;12.70;67.70
19039;DHT22;9652;49.014;12.052;2022-11-15T15:55:27;12.70;67.90
19039;DHT22;9652;49.014;12.052;2022-11-15T15:57:54;12.60;68.00
19039;DHT22;9652;49.014;12.052;2022-11-15T16:00:23;12.50;68.10
19039;DHT22;9652;49.014;12.052;2022-11-15T16:02:52;12.40;68.20
19039;DHT22;9652;49.014;12.052;2022-11-15T16:05:19;12.40;68.20
19039;DHT22;9652;49.014;12.052;2022-11-15T16:07:47;12.30;68.20
19039;DHT22;9652;49.014;12.052;2022-11-15T16:10:22;12.20;68.20
19039;DHT22;9652;49.014;12.052;2022-11-15T16:12:52;12.20;68.40
19039;DHT22;9652;49.014;12.052;2022-11-15T16:15:21;12.10;68.40
19039;DHT22;9652;49.014;12.052;2022-11-15T16:17:51;12.00;68.40
19039;DHT22;9652;49.014;12.052;2022-11-15T16:20:29;11.90;68.50
19039;DHT22;9652;49.014;12.052;2022-11-15T16:22:59;11.90;68.70
19039;DHT22;9652;49.014;12.052;2022-11-15T16:25:27;11.80;68.80
19039;DHT22;9652;49.014;12.052;2022-11-15T16:27:55;11.80;68.90
19039;DHT22;9652;49.014;12.052;2022-11-15T16:30:22;11.70;68.90
19039;DHT22;9652;49.014;12.052;2022-11-15T16:32:50;11.60;69.10
19039;DHT22;9652;49.014;12.052;2022-11-15T16:35:18;11.60;69.10
19039;DHT22;9652;49.014;12.052;2022-11-15T16:37:46;11.50;69.20
19039;DHT22;9652;49.014;12.052;2022-11-15T16:40:21;11.50;69.30
19039;DHT22;9652;49.014;12.052;2022-11-15T16:42:52;11.40;69.40
19039;DHT22;9652;49.014;12.052;2022-11-15T16:45:22;11.40;69.30
19039;DHT22;9652;49.014;12.052;2022-11-15T16:47:49;11.30;69.40
19039;DHT22;9652;49.014;12.052;2022-11-15T16:50:22;11.30;69.40
19039;DHT22;9652;49.014;12.052;2022-11-15T16:52:51;11.20;69.50
19039;DHT22;9652;49.014;12.052;2022-11-15T16:55:20;11.20;69.50
19039;DHT22;9652;49.014;12.052;2022-11-15T16:57:48;11.10;69.50
19039;DHT22;9652;49.014;12.052;2022-11-15T17:00:17;11.10;69.50
19039;DHT22;9652;49.014;12.052;2022-11-15T17:02:47;11.00;69.60
19039;DHT22;9652;49.014;12.052;2022-11-15T17:05:17;11.00;69.70
19039;DHT22;9652;49.014;12.052;2022-11-15T17:07:46;10.90;69.70
19039;DHT22;9652;49.014;12.052;2022-11-15T17:10:15;10.90;69.90
19039;DHT22;9652;49.014;12.052;2022-11-15T17:12:43;10.80;69.80
19039;DHT22;9652;49.014;12.052;2022-11-15T17:15:11;10.80;69.90
19039;DHT22;9652;49.014;12.052;2022-11-15T17:17:39;10.80;70.00
19039;DHT22;9652;49.014;12.052;2022-11-15T17:20:12;10.70;70.00
19039;DHT22;9652;49.014;12.052;2022-11-15T17:22:41;10.70;70.10
19039;DHT22;9652;49.014;12.052;2022-11-15T17:25:09;10.60;69.90
19039;DHT22;9652;49.014;12.052;2022-11-15T17:27:37;10.60;69.90
19039;DHT22;9652;49.014;12.052;2022-11-15T17:30:05;10.60;69.90